sensor_id;sensor_type;location;lat;lon;timestamp;P1;durP1;ratioP1;P2;durP2;ratioP2
10920;SDS011;5513;50.580;8.818;2023-06-14T00:01:51;5.33;;;3.30;;
10920;SDS011;5513;50.580;8.818;2023-06-14T00:04:20;5.07;;;3.30;;
10920;SDS011;5513;50.580;8.818;2023-06-14T00:06:48;6.97;;;3.50;;
10920;SDS011;5513;50.580;8.818;2023-06-14T00:09:17;8.43;;;3.60;;
10920;SDS011;5513;50.580;8.818;2023-06-14T00:11:45;5.78;;;3.63;;
10920;SDS011;5513;50.580;8.818;2023-06-14T00:14:14;5.88;;;3.80;;
10920;SDS011;5513;50.580;8.818;2023-06-14T00:16:44;5.78;;;3.53;;
10920;SDS011;5513;50.580;8.818;2023-06-14T00:19:14;8.90;;;3.70;;
10920;SDS011;5513;50.580;8.818;2023-06-14T00:21:43;5.83;;;3.97;;
10920;SDS011;5513;50.580;8.818;2023-06-14T00:24:12;8.27;;;3.60;;
10920;SDS011;5513;50.580;8.818;2023-06-14T00:26:40;6.37;;;3.70;;
10920;SDS011;5513;50.580;8.818;2023-06-14T00:29:08;7.47;;;3.70;;
10920;SDS011;5513;50.580;8.818;2023-06-14T00:31:37;9.03;;;3.77;;
10920;SDS011;5513;50.580;8.818;2023-06-14T00:34:05;6.07;;;3.53;;
10920;SDS011;5513;50.580;8.818;2023-06-14T00:36:38;4.47;;;3.80;;
10920;SDS011;5513;50.580;8.818;2023-06-14T00:39:07;6.80;;;3.27;;
10920;SDS011;5513;50.580;8.818;2023-06-14T00:44:08;6.10;;;4.33;;
10920;SDS011;5513;50.580;8.818;2023-06-14T00:46:37;4.80;;;3.50;;
10920;SDS011;5513;50.580;8.818;2023-06-14T00:49:05;6.67;;;3.80;;
10920;SDS011;5513;50.580;8.818;2023-06-14T00:51:37;5.63;;;3.43;;
10920;SDS011;5513;50.580;8.818;2023-06-14T00:54:05;5.93;;;3.90;;
10920;SDS011;5513;50.580;8.818;2023-06-14T00:56:35;6.77;;;3.40;;
10920;SDS011;5513;50.580;8.818;2023-06-14T00:59:04;7.23;;;4.17;;
10920;SDS011;5513;50.580;8.818;2023-06-14T01:01:32;5.10;;;3.17;;
10920;SDS011;5513;50.580;8.818;2023-06-14T01:04:01;5.43;;;3.60;;
10920;SDS011;5513;50.580;8.818;2023-06-14T01:06:31;4.50;;;3.70;;
10920;SDS011;5513;50.580;8.818;2023-06-14T01:09:13;6.90;;;3.83;;
10920;SDS011;5513;50.580;8.818;2023-06-14T01:11:50;5.57;;;4.03;;
10920;SDS011;5513;50.580;8.818;2023-06-14T01:14:28;6.00;;;4.07;;
10920;SDS011;5513;50.580;8.818;2023-06-14T01:16:58;6.97;;;3.70;;
10920;SDS011;5513;50.580;8.818;2023-06-14T01:19:28;9.47;;;4.33;;
10920;SDS011;5513;50.580;8.818;2023-06-14T01:21:58;8.30;;;3.87;;
10920;SDS011;5513;50.580;8.818;2023-06-14T01:24:29;7.00;;;3.90;;
10920;SDS011;5513;50.580;8.818;2023-06-14T01:27:01;9.97;;;4.23;;
10920;SDS011;5513;50.580;8.818;2023-06-14T01:29:30;6.20;;;3.93;;
10920;SDS011;5513;50.580;8.818;2023-06-14T01:32:00;4.77;;;3.47;;
10920;SDS011;5513;50.580;8.818;2023-06-14T01:34:29;6.60;;;3.70;;
10920;SDS011;5513;50.580;8.818;2023-06-14T01:36:58;7.37;;;4.20;;
10920;SDS011;5513;50.580;8.818;2023-06-14T01:39:31;6.40;;;4.27;;
10920;SDS011;5513;50.580;8.818;2023-06-14T01:42:01;5.27;;;3.83;;
10920;SDS011;5513;50.580;8.818;2023-06-14T01:44:30;7.13;;;4.03;;
10920;SDS011;5513;50.580;8.818;2023-06-14T01:46:59;6.07;;;4.30;;
10920;SDS011;5513;50.580;8.818;2023-06-14T01:49:27;8.87;;;4.10;;
10920;SDS011;5513;50.580;8.818;2023-06-14T01:51:56;8.20;;;4.23;;
10920;SDS011;5513;50.580;8.818;2023-06-14T01:54:24;6.43;;;4.03;;
10920;SDS011;5513;50.580;8.818;2023-06-14T01:56:55;5.43;;;4.20;;
10920;SDS011;5513;50.580;8.818;2023-06-14T01:59:23;8.70;;;4.37;;
10920;SDS011;5513;50.580;8.818;2023-06-14T02:01:52;8.67;;;4.23;;
10920;SDS011;5513;50.580;8.818;2023-06-14T02:04:20;5.67;;;4.20;;
10920;SDS011;5513;50.580;8.818;2023-06-14T02:06:49;6.57;;;4.07;;
10920;SDS011;5513;50.580;8.818;2023-06-14T02:09:18;5.67;;;3.87;;
10920;SDS011;5513;50.580;8.818;2023-06-14T02:11:46;5.47;;;4.10;;
10920;SDS011;5513;50.580;8.818;2023-06-14T02:14:16;5.63;;;4.10;;
10920;SDS011;5513;50.580;8.818;2023-06-14T02:16:45;7.40;;;3.83;;
10920;SDS011;5513;50.580;8.818;2023-06-14T02:19:15;6.10;;;3.83;;
10920;SDS011;5513;50.580;8.818;2023-06-14T02:21:44;5.90;;;4.10;;
10920;SDS011;5513;50.580;8.818;2023-06-14T02:24:13;7.07;;;4.30;;
10920;SDS011;5513;50.580;8.818;2023-06-14T02:26:42;5.43;;;4.37;;
10920;SDS011;5513;50.580;8.818;2023-06-14T02:29:10;6.30;;;4.03;;
10920;SDS011;5513;50.580;8.818;2023-06-14T02:31:43;5.47;;;4.07;;
10920;SDS011;5513;50.580;8.818;2023-06-14T02:34:13;7.13;;;4.30;;
10920;SDS011;5513;50.580;8.818;2023-06-14T02:36:43;7.40;;;4.07;;
10920;SDS011;5513;50.580;8.818;2023-06-14T02:39:11;6.53;;;4.00;;
10920;SDS011;5513;50.580;8.818;2023-06-14T02:41:40;5.87;;;3.80;;
10920;SDS011;5513;50.580;8.818;2023-06-14T02:44:09;9.00;;;4.13;;
10920;SDS011;5513;50.580;8.818;2023-06-14T02:46:38;6.00;;;3.83;;
10920;SDS011;5513;50.580;8.818;2023-06-14T02:49:08;5.17;;;4.00;;
10920;SDS011;5513;50.580;8.818;2023-06-14T02:51:36;8.00;;;3.73;;
10920;SDS011;5513;50.580;8.818;2023-06-14T02:54:05;5.23;;;4.40;;
10920;SDS011;5513;50.580;8.818;2023-06-14T02:56:33;9.27;;;4.20;;
10920;SDS011;5513;50.580;8.818;2023-06-14T02:59:02;5.87;;;4.20;;
10920;SDS011;5513;50.580;8.818;2023-06-14T03:01:30;6.03;;;4.03;;
10920;SDS011;5513;50.580;8.818;2023-06-14T03:04:02;7.23;;;4.17;;
10920;SDS011;5513;50.580;8.818;2023-06-14T03:06:33;7.23;;;4.17;;
10920;SDS011;5513;50.580;8.818;2023-06-14T03:09:02;7.00;;;4.63;;
10920;SDS011;5513;50.580;8.818;2023-06-14T03:11:32;8.10;;;3.80;;
10920;SDS011;5513;50.580;8.818;2023-06-14T03:14:00;6.93;;;4.20;;
10920;SDS011;5513;50.580;8.818;2023-06-14T03:16:30;7.90;;;3.90;;
10920;SDS011;5513;50.580;8.818;2023-06-14T03:18:58;6.27;;;4.10;;
10920;SDS011;5513;50.580;8.818;2023-06-14T03:21:27;6.87;;;4.20;;
10920;SDS011;5513;50.580;8.818;2023-06-14T03:23:57;6.47;;;4.27;;
10920;SDS011;5513;50.580;8.818;2023-06-14T03:26:25;7.83;;;4.10;;
10920;SDS011;5513;50.580;8.818;2023-06-14T03:28:54;6.67;;;4.37;;
10920;SDS011;5513;50.580;8.818;2023-06-14T03:31:23;4.80;;;4.00;;
10920;SDS011;5513;50.580;8.818;2023-06-14T03:33:51;5.57;;;4.00;;
10920;SDS011;5513;50.580;8.818;2023-06-14T03:36:20;6.17;;;4.37;;
10920;SDS011;5513;50.580;8.818;2023-06-14T03:38:49;7.20;;;4.17;;
10920;SDS011;5513;50.580;8.818;2023-06-14T03:41:19;9.43;;;3.90;;
10920;SDS011;5513;50.580;8.818;2023-06-14T03:43:48;7.53;;;3.90;;
10920;SDS011;5513;50.580;8.818;2023-06-14T03:46:16;5.60;;;4.10;;
10920;SDS011;5513;50.580;8.818;2023-06-14T03:48:44;6.47;;;3.80;;
10920;SDS011;5513;50.580;8.818;2023-06-14T03:51:13;7.73;;;3.70;;
10920;SDS011;5513;50.580;8.818;2023-06-14T03:53:42;8.20;;;3.77;;
10920;SDS011;5513;50.580;8.818;2023-06-14T03:56:33;7.47;;;4.10;;
10920;SDS011;5513;50.580;8.818;2023-06-14T03:59:05;13.57;;;4.30;;
10920;SDS011;5513;50.580;8.818;2023-06-14T04:01:33;6.00;;;3.90;;
10920;SDS011;5513;50.580;8.818;2023-06-14T04:04:01;6.47;;;4.17;;
10920;SDS011;5513;50.580;8.818;2023-06-14T04:06:30;6.63;;;3.87;;
10920;SDS011;5513;50.580;8.818;2023-06-14T04:09:00;5.53;;;3.70;;
10920;SDS011;5513;50.580;8.818;2023-06-14T04:11:29;6.53;;;4.13;;
10920;SDS011;5513;50.580;8.818;2023-06-14T04:13:59;7.30;;;4.40;;
10920;SDS011;5513;50.580;8.818;2023-06-14T04:16:29;8.03;;;4.07;;
10920;SDS011;5513;50.580;8.818;2023-06-14T04:18:58;5.57;;;3.90;;
10920;SDS011;5513;50.580;8.818;2023-06-14T04:21:28;5.10;;;4.03;;
10920;SDS011;5513;50.580;8.818;2023-06-14T04:23:56;6.90;;;3.53;;
10920;SDS011;5513;50.580;8.818;2023-06-14T04:26:28;5.77;;;3.80;;
10920;SDS011;5513;50.580;8.818;2023-06-14T04:29:01;7.27;;;3.70;;
10920;SDS011;5513;50.580;8.818;2023-06-14T04:31:33;8.10;;;3.53;;
10920;SDS011;5513;50.580;8.818;2023-06-14T04:34:04;6.03;;;3.67;;
10920;SDS011;5513;50.580;8.818;2023-06-14T04:36:33;7.00;;;3.70;;
10920;SDS011;5513;50.580;8.818;2023-06-14T04:39:03;4.97;;;3.47;;
10920;SDS011;5513;50.580;8.818;2023-06-14T04:41:32;10.50;;;3.93;;
10920;SDS011;5513;50.580;8.818;2023-06-14T04:44:03;4.53;;;3.57;;
10920;SDS011;5513;50.580;8.818;2023-06-14T04:46:31;6.37;;;3.90;;
10920;SDS011;5513;50.580;8.818;2023-06-14T04:49:10;8.03;;;3.60;;
10920;SDS011;5513;50.580;8.818;2023-06-14T04:51:42;6.10;;;3.77;;
10920;SDS011;5513;50.580;8.818;2023-06-14T04:54:10;6.53;;;3.83;;
10920;SDS011;5513;50.580;8.818;2023-06-14T04:56:41;5.53;;;3.97;;
10920;SDS011;5513;50.580;8.818;2023-06-14T04:59:11;5.60;;;4.27;;
10920;SDS011;5513;50.580;8.818;2023-06-14T05:01:41;7.13;;;3.80;;
10920;SDS011;5513;50.580;8.818;2023-06-14T05:04:14;6.27;;;3.80;;
10920;SDS011;5513;50.580;8.818;2023-06-14T05:06:43;5.93;;;4.03;;
10920;SDS011;5513;50.580;8.818;2023-06-14T05:09:16;6.20;;;3.70;;
10920;SDS011;5513;50.580;8.818;2023-06-14T05:11:44;10.30;;;4.00;;
10920;SDS011;5513;50.580;8.818;2023-06-14T05:14:15;6.57;;;3.50;;
10920;SDS011;5513;50.580;8.818;2023-06-14T05:16:44;5.43;;;3.97;;
10920;SDS011;5513;50.580;8.818;2023-06-14T05:19:12;5.20;;;3.57;;
10920;SDS011;5513;50.580;8.818;2023-06-14T05:21:41;5.53;;;3.73;;
10920;SDS011;5513;50.580;8.818;2023-06-14T05:24:09;6.47;;;3.70;;
10920;SDS011;5513;50.580;8.818;2023-06-14T05:26:38;4.90;;;3.80;;
10920;SDS011;5513;50.580;8.818;2023-06-14T05:29:07;7.13;;;3.83;;
10920;SDS011;5513;50.580;8.818;2023-06-14T05:31:37;8.60;;;4.00;;
10920;SDS011;5513;50.580;8.818;2023-06-14T05:34:05;6.00;;;3.87;;
10920;SDS011;5513;50.580;8.818;2023-06-14T05:36:34;4.00;;;3.47;;
10920;SDS011;5513;50.580;8.818;2023-06-14T05:39:03;4.87;;;3.67;;
10920;SDS011;5513;50.580;8.818;2023-06-14T05:41:32;4.80;;;3.67;;
10920;SDS011;5513;50.580;8.818;2023-06-14T05:44:01;6.97;;;3.70;;
10920;SDS011;5513;50.580;8.818;2023-06-14T05:46:29;6.20;;;4.00;;
10920;SDS011;5513;50.580;8.818;2023-06-14T05:48:59;6.10;;;3.50;;
10920;SDS011;5513;50.580;8.818;2023-06-14T05:51:27;4.70;;;3.70;;
10920;SDS011;5513;50.580;8.818;2023-06-14T05:53:55;5.43;;;3.60;;
10920;SDS011;5513;50.580;8.818;2023-06-14T05:56:24;5.17;;;3.63;;
10920;SDS011;5513;50.580;8.818;2023-06-14T05:58:52;4.67;;;3.53;;
10920;SDS011;5513;50.580;8.818;2023-06-14T06:01:21;6.60;;;3.60;;
10920;SDS011;5513;50.580;8.818;2023-06-14T06:03:49;6.80;;;3.73;;
10920;SDS011;5513;50.580;8.818;2023-06-14T06:06:19;5.60;;;3.20;;
10920;SDS011;5513;50.580;8.818;2023-06-14T06:08:48;5.87;;;3.23;;
10920;SDS011;5513;50.580;8.818;2023-06-14T06:11:16;7.00;;;3.23;;
10920;SDS011;5513;50.580;8.818;2023-06-14T06:13:45;8.23;;;3.37;;
10920;SDS011;5513;50.580;8.818;2023-06-14T06:16:14;5.37;;;3.17;;
10920;SDS011;5513;50.580;8.818;2023-06-14T06:18:42;4.30;;;3.33;;
10920;SDS011;5513;50.580;8.818;2023-06-14T06:21:11;5.97;;;3.20;;
10920;SDS011;5513;50.580;8.818;2023-06-14T06:23:42;5.60;;;3.20;;
10920;SDS011;5513;50.580;8.818;2023-06-14T06:26:10;10.37;;;3.20;;
10920;SDS011;5513;50.580;8.818;2023-06-14T06:28:39;7.33;;;3.20;;
10920;SDS011;5513;50.580;8.818;2023-06-14T06:31:08;8.13;;;3.17;;
10920;SDS011;5513;50.580;8.818;2023-06-14T06:33:36;7.60;;;3.03;;
10920;SDS011;5513;50.580;8.818;2023-06-14T06:36:06;5.03;;;3.50;;
10920;SDS011;5513;50.580;8.818;2023-06-14T06:38:37;3.27;;;2.97;;
10920;SDS011;5513;50.580;8.818;2023-06-14T06:41:07;4.53;;;3.27;;
10920;SDS011;5513;50.580;8.818;2023-06-14T06:43:35;4.73;;;2.90;;
10920;SDS011;5513;50.580;8.818;2023-06-14T06:46:04;3.20;;;2.70;;
10920;SDS011;5513;50.580;8.818;2023-06-14T06:48:32;4.63;;;3.07;;
10920;SDS011;5513;50.580;8.818;2023-06-14T06:51:00;4.60;;;3.33;;
10920;SDS011;5513;50.580;8.818;2023-06-14T06:53:29;4.67;;;3.00;;
10920;SDS011;5513;50.580;8.818;2023-06-14T06:56:08;8.13;;;3.30;;
10920;SDS011;5513;50.580;8.818;2023-06-14T06:58:36;4.03;;;3.63;;
10920;SDS011;5513;50.580;8.818;2023-06-14T07:01:05;4.63;;;2.63;;
10920;SDS011;5513;50.580;8.818;2023-06-14T07:03:35;6.03;;;2.93;;
10920;SDS011;5513;50.580;8.818;2023-06-14T07:06:03;6.57;;;3.10;;
10920;SDS011;5513;50.580;8.818;2023-06-14T07:08:32;3.93;;;2.83;;
10920;SDS011;5513;50.580;8.818;2023-06-14T07:11:01;3.37;;;2.80;;
10920;SDS011;5513;50.580;8.818;2023-06-14T07:13:32;3.60;;;2.73;;
10920;SDS011;5513;50.580;8.818;2023-06-14T07:16:00;4.73;;;2.63;;
10920;SDS011;5513;50.580;8.818;2023-06-14T07:18:29;3.10;;;2.67;;
10920;SDS011;5513;50.580;8.818;2023-06-14T07:20:57;4.13;;;2.80;;
10920;SDS011;5513;50.580;8.818;2023-06-14T07:23:26;4.47;;;2.83;;
10920;SDS011;5513;50.580;8.818;2023-06-14T07:25:56;3.63;;;2.87;;
10920;SDS011;5513;50.580;8.818;2023-06-14T07:28:24;5.13;;;2.50;;
10920;SDS011;5513;50.580;8.818;2023-06-14T07:30:57;3.23;;;2.60;;
10920;SDS011;5513;50.580;8.818;2023-06-14T07:33:25;6.20;;;2.70;;
10920;SDS011;5513;50.580;8.818;2023-06-14T07:35:54;5.73;;;2.87;;
10920;SDS011;5513;50.580;8.818;2023-06-14T07:38:23;3.77;;;2.77;;
10920;SDS011;5513;50.580;8.818;2023-06-14T07:40:52;3.57;;;2.43;;
10920;SDS011;5513;50.580;8.818;2023-06-14T07:43:21;3.20;;;2.40;;
10920;SDS011;5513;50.580;8.818;2023-06-14T07:45:50;5.30;;;2.80;;
10920;SDS011;5513;50.580;8.818;2023-06-14T07:48:35;3.25;;;2.33;;
10920;SDS011;5513;50.580;8.818;2023-06-14T07:51:03;4.17;;;2.20;;
10920;SDS011;5513;50.580;8.818;2023-06-14T07:53:32;3.77;;;2.50;;
10920;SDS011;5513;50.580;8.818;2023-06-14T07:56:00;4.37;;;2.57;;
10920;SDS011;5513;50.580;8.818;2023-06-14T07:58:29;4.03;;;2.50;;
10920;SDS011;5513;50.580;8.818;2023-06-14T08:00:57;4.37;;;2.37;;
10920;SDS011;5513;50.580;8.818;2023-06-14T08:03:26;4.00;;;2.30;;
10920;SDS011;5513;50.580;8.818;2023-06-14T08:05:56;2.53;;;2.33;;
10920;SDS011;5513;50.580;8.818;2023-06-14T08:08:25;3.72;;;2.55;;
10920;SDS011;5513;50.580;8.818;2023-06-14T08:10:53;3.40;;;2.38;;
10920;SDS011;5513;50.580;8.818;2023-06-14T08:13:21;3.08;;;2.00;;
10920;SDS011;5513;50.580;8.818;2023-06-14T08:15:49;4.40;;;2.70;;
10920;SDS011;5513;50.580;8.818;2023-06-14T08:18:18;2.97;;;2.33;;
10920;SDS011;5513;50.580;8.818;2023-06-14T08:20:46;3.70;;;2.67;;
10920;SDS011;5513;50.580;8.818;2023-06-14T08:23:16;4.13;;;2.63;;
10920;SDS011;5513;50.580;8.818;2023-06-14T08:25:45;4.95;;;2.75;;
10920;SDS011;5513;50.580;8.818;2023-06-14T08:28:14;4.05;;;2.53;;
10920;SDS011;5513;50.580;8.818;2023-06-14T08:30:43;4.47;;;2.80;;
10920;SDS011;5513;50.580;8.818;2023-06-14T08:33:11;5.25;;;3.40;;
10920;SDS011;5513;50.580;8.818;2023-06-14T08:35:42;7.32;;;6.40;;
10920;SDS011;5513;50.580;8.818;2023-06-14T08:38:12;12.02;;;7.57;;
10920;SDS011;5513;50.580;8.818;2023-06-14T08:40:42;16.75;;;11.88;;
10920;SDS011;5513;50.580;8.818;2023-06-14T08:43:12;8.25;;;6.10;;
10920;SDS011;5513;50.580;8.818;2023-06-14T08:45:43;8.52;;;3.33;;
10920;SDS011;5513;50.580;8.818;2023-06-14T08:48:14;3.97;;;3.47;;
10920;SDS011;5513;50.580;8.818;2023-06-14T08:50:44;5.05;;;3.10;;
10920;SDS011;5513;50.580;8.818;2023-06-14T08:53:14;4.53;;;2.83;;
10920;SDS011;5513;50.580;8.818;2023-06-14T08:55:49;5.55;;;2.83;;
10920;SDS011;5513;50.580;8.818;2023-06-14T08:58:19;5.60;;;2.90;;
10920;SDS011;5513;50.580;8.818;2023-06-14T09:00:50;4.50;;;2.72;;
10920;SDS011;5513;50.580;8.818;2023-06-14T09:03:20;2.85;;;2.63;;
10920;SDS011;5513;50.580;8.818;2023-06-14T09:05:49;3.28;;;2.55;;
10920;SDS011;5513;50.580;8.818;2023-06-14T09:08:20;4.30;;;2.75;;
10920;SDS011;5513;50.580;8.818;2023-06-14T09:10:50;4.28;;;3.05;;
10920;SDS011;5513;50.580;8.818;2023-06-14T09:13:18;4.75;;;3.22;;
10920;SDS011;5513;50.580;8.818;2023-06-14T09:15:47;5.82;;;2.80;;
10920;SDS011;5513;50.580;8.818;2023-06-14T09:18:15;5.20;;;2.80;;
10920;SDS011;5513;50.580;8.818;2023-06-14T09:20:44;5.72;;;2.80;;
10920;SDS011;5513;50.580;8.818;2023-06-14T09:23:13;4.40;;;2.60;;
10920;SDS011;5513;50.580;8.818;2023-06-14T09:25:50;5.28;;;3.10;;
10920;SDS011;5513;50.580;8.818;2023-06-14T09:28:18;4.80;;;3.00;;
10920;SDS011;5513;50.580;8.818;2023-06-14T09:30:49;5.05;;;2.85;;
10920;SDS011;5513;50.580;8.818;2023-06-14T09:33:17;4.05;;;2.63;;
10920;SDS011;5513;50.580;8.818;2023-06-14T09:35:50;4.03;;;2.92;;
10920;SDS011;5513;50.580;8.818;2023-06-14T09:38:19;5.57;;;2.80;;
10920;SDS011;5513;50.580;8.818;2023-06-14T09:40:51;2.90;;;2.60;;
10920;SDS011;5513;50.580;8.818;2023-06-14T09:43:19;4.47;;;2.80;;
10920;SDS011;5513;50.580;8.818;2023-06-14T09:45:49;3.50;;;2.58;;
10920;SDS011;5513;50.580;8.818;2023-06-14T09:48:19;3.80;;;2.50;;
10920;SDS011;5513;50.580;8.818;2023-06-14T09:50:49;3.47;;;2.10;;
10920;SDS011;5513;50.580;8.818;2023-06-14T09:53:20;4.35;;;2.45;;
10920;SDS011;5513;50.580;8.818;2023-06-14T09:55:52;2.72;;;2.17;;
10920;SDS011;5513;50.580;8.818;2023-06-14T09:58:24;2.53;;;2.30;;
10920;SDS011;5513;50.580;8.818;2023-06-14T10:00:55;4.35;;;2.67;;
10920;SDS011;5513;50.580;8.818;2023-06-14T10:03:27;4.55;;;2.40;;
10920;SDS011;5513;50.580;8.818;2023-06-14T10:06:16;2.95;;;2.30;;
10920;SDS011;5513;50.580;8.818;2023-06-14T10:08:47;3.47;;;2.30;;
10920;SDS011;5513;50.580;8.818;2023-06-14T10:11:18;3.25;;;2.25;;
10920;SDS011;5513;50.580;8.818;2023-06-14T10:13:49;4.68;;;2.30;;
10920;SDS011;5513;50.580;8.818;2023-06-14T10:16:20;4.13;;;2.03;;
10920;SDS011;5513;50.580;8.818;2023-06-14T10:18:54;3.13;;;2.30;;
10920;SDS011;5513;50.580;8.818;2023-06-14T10:21:32;3.33;;;2.22;;
10920;SDS011;5513;50.580;8.818;2023-06-14T10:24:15;2.90;;;2.17;;
10920;SDS011;5513;50.580;8.818;2023-06-14T10:26:54;5.65;;;2.50;;
10920;SDS011;5513;50.580;8.818;2023-06-14T10:29:26;4.82;;;2.38;;
10920;SDS011;5513;50.580;8.818;2023-06-14T10:31:59;3.75;;;2.30;;
10920;SDS011;5513;50.580;8.818;2023-06-14T10:34:30;2.35;;;2.03;;
10920;SDS011;5513;50.580;8.818;2023-06-14T10:37:00;3.35;;;2.17;;
10920;SDS011;5513;50.580;8.818;2023-06-14T10:39:30;3.25;;;2.22;;
10920;SDS011;5513;50.580;8.818;2023-06-14T10:42:01;2.55;;;2.25;;
10920;SDS011;5513;50.580;8.818;2023-06-14T10:44:39;3.20;;;2.20;;
10920;SDS011;5513;50.580;8.818;2023-06-14T10:47:21;5.03;;;2.25;;
10920;SDS011;5513;50.580;8.818;2023-06-14T10:49:52;4.03;;;2.22;;
10920;SDS011;5513;50.580;8.818;2023-06-14T10:52:22;7.25;;;2.83;;
10920;SDS011;5513;50.580;8.818;2023-06-14T10:57:44;3.17;;;2.30;;
10920;SDS011;5513;50.580;8.818;2023-06-14T11:00:19;2.85;;;2.40;;
10920;SDS011;5513;50.580;8.818;2023-06-14T11:03:17;4.28;;;2.38;;
10920;SDS011;5513;50.580;8.818;2023-06-14T11:06:12;4.95;;;2.40;;
10920;SDS011;5513;50.580;8.818;2023-06-14T11:08:51;3.45;;;2.20;;
10920;SDS011;5513;50.580;8.818;2023-06-14T11:11:36;6.45;;;2.55;;
10920;SDS011;5513;50.580;8.818;2023-06-14T11:14:07;3.00;;;2.20;;
10920;SDS011;5513;50.580;8.818;2023-06-14T11:16:36;4.38;;;2.40;;
10920;SDS011;5513;50.580;8.818;2023-06-14T11:19:04;2.60;;;2.38;;
10920;SDS011;5513;50.580;8.818;2023-06-14T11:21:34;3.30;;;2.13;;
10920;SDS011;5513;50.580;8.818;2023-06-14T11:24:09;2.90;;;2.35;;
10920;SDS011;5513;50.580;8.818;2023-06-14T11:26:40;3.58;;;2.17;;
10920;SDS011;5513;50.580;8.818;2023-06-14T11:29:10;3.42;;;2.35;;
10920;SDS011;5513;50.580;8.818;2023-06-14T11:31:42;4.68;;;2.50;;
10920;SDS011;5513;50.580;8.818;2023-06-14T11:34:11;2.67;;;2.47;;
10920;SDS011;5513;50.580;8.818;2023-06-14T11:36:41;4.35;;;2.83;;
10920;SDS011;5513;50.580;8.818;2023-06-14T11:39:10;2.95;;;2.53;;
10920;SDS011;5513;50.580;8.818;2023-06-14T11:41:39;4.68;;;2.35;;
10920;SDS011;5513;50.580;8.818;2023-06-14T11:44:11;3.10;;;2.58;;
10920;SDS011;5513;50.580;8.818;2023-06-14T11:46:39;2.95;;;2.70;;
10920;SDS011;5513;50.580;8.818;2023-06-14T11:49:08;4.97;;;2.38;;
10920;SDS011;5513;50.580;8.818;2023-06-14T11:51:37;4.18;;;2.42;;
10920;SDS011;5513;50.580;8.818;2023-06-14T11:54:06;4.35;;;2.58;;
10920;SDS011;5513;50.580;8.818;2023-06-14T11:56:37;2.50;;;2.30;;
10920;SDS011;5513;50.580;8.818;2023-06-14T11:59:06;3.05;;;2.30;;
10920;SDS011;5513;50.580;8.818;2023-06-14T12:01:39;3.97;;;2.40;;
10920;SDS011;5513;50.580;8.818;2023-06-14T12:04:11;4.13;;;2.60;;
10920;SDS011;5513;50.580;8.818;2023-06-14T12:06:40;7.43;;;2.60;;
10920;SDS011;5513;50.580;8.818;2023-06-14T12:09:09;4.63;;;2.40;;
10920;SDS011;5513;50.580;8.818;2023-06-14T12:11:43;3.88;;;2.40;;
10920;SDS011;5513;50.580;8.818;2023-06-14T12:14:12;3.17;;;2.55;;
10920;SDS011;5513;50.580;8.818;2023-06-14T12:16:45;2.67;;;2.38;;
10920;SDS011;5513;50.580;8.818;2023-06-14T12:19:14;4.90;;;2.47;;
10920;SDS011;5513;50.580;8.818;2023-06-14T12:21:45;4.07;;;2.10;;
10920;SDS011;5513;50.580;8.818;2023-06-14T12:24:15;3.83;;;2.53;;
10920;SDS011;5513;50.580;8.818;2023-06-14T12:26:44;3.03;;;2.60;;
10920;SDS011;5513;50.580;8.818;2023-06-14T12:29:13;3.38;;;2.55;;
10920;SDS011;5513;50.580;8.818;2023-06-14T12:31:42;3.28;;;2.40;;
10920;SDS011;5513;50.580;8.818;2023-06-14T12:34:12;4.00;;;2.30;;
10920;SDS011;5513;50.580;8.818;2023-06-14T12:36:40;5.10;;;2.55;;
10920;SDS011;5513;50.580;8.818;2023-06-14T12:39:11;4.25;;;2.40;;
10920;SDS011;5513;50.580;8.818;2023-06-14T12:41:40;2.65;;;2.40;;
10920;SDS011;5513;50.580;8.818;2023-06-14T12:44:09;2.90;;;2.70;;
10920;SDS011;5513;50.580;8.818;2023-06-14T12:46:38;2.63;;;2.30;;
10920;SDS011;5513;50.580;8.818;2023-06-14T12:49:08;4.35;;;2.50;;
10920;SDS011;5513;50.580;8.818;2023-06-14T12:51:39;2.40;;;2.20;;
10920;SDS011;5513;50.580;8.818;2023-06-14T12:54:08;4.07;;;2.60;;
10920;SDS011;5513;50.580;8.818;2023-06-14T12:56:36;6.95;;;2.40;;
10920;SDS011;5513;50.580;8.818;2023-06-14T12:59:05;8.82;;;2.30;;
10920;SDS011;5513;50.580;8.818;2023-06-14T13:01:34;3.28;;;2.40;;
10920;SDS011;5513;50.580;8.818;2023-06-14T13:04:02;2.67;;;2.40;;
10920;SDS011;5513;50.580;8.818;2023-06-14T13:06:31;3.67;;;2.67;;
10920;SDS011;5513;50.580;8.818;2023-06-14T13:09:01;3.70;;;2.53;;
10920;SDS011;5513;50.580;8.818;2023-06-14T13:11:30;3.38;;;2.20;;
10920;SDS011;5513;50.580;8.818;2023-06-14T13:13:58;2.85;;;2.38;;
10920;SDS011;5513;50.580;8.818;2023-06-14T13:16:44;5.22;;;2.30;;
10920;SDS011;5513;50.580;8.818;2023-06-14T13:19:12;3.38;;;2.40;;
10920;SDS011;5513;50.580;8.818;2023-06-14T13:21:40;4.65;;;2.45;;
10920;SDS011;5513;50.580;8.818;2023-06-14T13:24:10;2.80;;;2.30;;
10920;SDS011;5513;50.580;8.818;2023-06-14T13:26:39;3.67;;;2.30;;
10920;SDS011;5513;50.580;8.818;2023-06-14T13:29:08;3.08;;;2.60;;
10920;SDS011;5513;50.580;8.818;2023-06-14T13:31:37;2.42;;;2.20;;
10920;SDS011;5513;50.580;8.818;2023-06-14T13:34:06;4.80;;;2.50;;
10920;SDS011;5513;50.580;8.818;2023-06-14T13:36:35;2.78;;;2.47;;
10920;SDS011;5513;50.580;8.818;2023-06-14T13:39:03;4.25;;;2.67;;
10920;SDS011;5513;50.580;8.818;2023-06-14T13:41:33;2.40;;;2.20;;
10920;SDS011;5513;50.580;8.818;2023-06-14T13:44:03;3.47;;;2.40;;
10920;SDS011;5513;50.580;8.818;2023-06-14T13:46:31;6.15;;;2.10;;
10920;SDS011;5513;50.580;8.818;2023-06-14T13:49:00;4.00;;;2.22;;
10920;SDS011;5513;50.580;8.818;2023-06-14T13:51:28;5.28;;;2.28;;
10920;SDS011;5513;50.580;8.818;2023-06-14T13:53:57;3.63;;;2.20;;
10920;SDS011;5513;50.580;8.818;2023-06-14T13:56:25;3.80;;;2.83;;
10920;SDS011;5513;50.580;8.818;2023-06-14T13:58:55;2.50;;;2.10;;
10920;SDS011;5513;50.580;8.818;2023-06-14T14:01:23;2.83;;;2.53;;
10920;SDS011;5513;50.580;8.818;2023-06-14T14:03:53;4.45;;;2.08;;
10920;SDS011;5513;50.580;8.818;2023-06-14T14:06:23;2.83;;;1.98;;
10920;SDS011;5513;50.580;8.818;2023-06-14T14:08:51;4.68;;;2.30;;
10920;SDS011;5513;50.580;8.818;2023-06-14T14:11:20;4.10;;;2.28;;
10920;SDS011;5513;50.580;8.818;2023-06-14T14:13:49;3.38;;;2.25;;
10920;SDS011;5513;50.580;8.818;2023-06-14T14:16:19;2.78;;;2.40;;
10920;SDS011;5513;50.580;8.818;2023-06-14T14:18:47;2.50;;;2.30;;
10920;SDS011;5513;50.580;8.818;2023-06-14T14:21:16;2.90;;;2.22;;
10920;SDS011;5513;50.580;8.818;2023-06-14T14:23:44;4.88;;;2.40;;
10920;SDS011;5513;50.580;8.818;2023-06-14T14:26:13;2.30;;;2.10;;
10920;SDS011;5513;50.580;8.818;2023-06-14T14:28:42;2.83;;;2.22;;
10920;SDS011;5513;50.580;8.818;2023-06-14T14:31:11;2.30;;;2.10;;
10920;SDS011;5513;50.580;8.818;2023-06-14T14:33:41;3.15;;;2.30;;
10920;SDS011;5513;50.580;8.818;2023-06-14T14:36:10;3.70;;;2.17;;
10920;SDS011;5513;50.580;8.818;2023-06-14T14:38:38;3.10;;;2.20;;
10920;SDS011;5513;50.580;8.818;2023-06-14T14:41:07;2.70;;;2.50;;
10920;SDS011;5513;50.580;8.818;2023-06-14T14:43:35;5.18;;;2.58;;
10920;SDS011;5513;50.580;8.818;2023-06-14T14:46:03;2.30;;;2.10;;
10920;SDS011;5513;50.580;8.818;2023-06-14T14:48:32;2.33;;;2.10;;
10920;SDS011;5513;50.580;8.818;2023-06-14T14:51:02;2.42;;;2.22;;
10920;SDS011;5513;50.580;8.818;2023-06-14T14:53:30;3.00;;;2.40;;
10920;SDS011;5513;50.580;8.818;2023-06-14T14:55:59;6.28;;;2.20;;
10920;SDS011;5513;50.580;8.818;2023-06-14T14:58:30;4.68;;;2.20;;
10920;SDS011;5513;50.580;8.818;2023-06-14T15:00:58;3.90;;;2.53;;
10920;SDS011;5513;50.580;8.818;2023-06-14T15:03:28;4.97;;;2.47;;
10920;SDS011;5513;50.580;8.818;2023-06-14T15:06:02;6.00;;;2.42;;
10920;SDS011;5513;50.580;8.818;2023-06-14T15:08:31;3.25;;;2.50;;
10920;SDS011;5513;50.580;8.818;2023-06-14T15:10:59;2.63;;;2.40;;
10920;SDS011;5513;50.580;8.818;2023-06-14T15:13:29;3.47;;;2.40;;
10920;SDS011;5513;50.580;8.818;2023-06-14T15:15:58;2.53;;;2.33;;
10920;SDS011;5513;50.580;8.818;2023-06-14T15:18:27;3.85;;;2.35;;
10920;SDS011;5513;50.580;8.818;2023-06-14T15:20:55;3.55;;;2.13;;
10920;SDS011;5513;50.580;8.818;2023-06-14T15:23:25;4.85;;;2.38;;